Time;durP1;ratioP1;P1;durP2;ratioP2;P2;SDS_P1;SDS_P2;PMS_P1;PMS_P2;Temp;Humidity;BMP_temperature;BMP_pressure;BME280_temperature;BME280_humidity;BME280_pressure;Samples;Min_cycle;Max_cycle;Signal;HPM_P1;HPM_P2
2023/04/27 00:02:46;;;;;;;5.67;2.77;;;;;;;;;;5016106;28;20217;-69
2023/04/27 00:05:50;;;;;;;5.13;2.83;;;;;;;;;;5016441;28;20182;-69
2023/04/27 00:08:54;;;;;;;6.30;2.57;;;;;;;;;;5004349;28;20217;-69
2023/04/27 00:11:59;;;;;;;5.33;2.87;;;;;;;;;;5015950;28;20213;-69
2023/04/27 00:15:04;;;;;;;3.37;2.70;;;;;;;;;;4993024;28;20557;-69
2023/04/27 00:18:08;;;;;;;5.87;2.57;;;;;;;;;;5016467;28;20177;-69
2023/04/27 00:21:12;;;;;;;5.00;3.20;;;;;;;;;;5003710;28;20217;-69
2023/04/27 00:24:17;;;;;;;8.73;3.70;;;;;;;;;;5003717;28;20536;-68
2023/04/27 00:27:21;;;;;;;3.67;2.97;;;;;;;;;;5004074;28;20201;-69
2023/04/27 00:30:25;;;;;;;7.63;2.70;;;;;;;;;;4992650;28;20197;-69
2023/04/27 00:33:30;;;;;;;3.43;2.43;;;;;;;;;;5003776;28;20664;-69
2023/04/27 00:36:34;;;;;;;5.33;3.20;;;;;;;;;;5015595;28;20205;-69
2023/04/27 00:39:38;;;;;;;7.03;3.33;;;;;;;;;;5003444;28;20177;-69
2023/04/27 00:42:43;;;;;;;5.37;3.10;;;;;;;;;;5003634;28;20209;-69
2023/04/27 00:45:48;;;;;;;8.90;3.23;;;;;;;;;;5003341;28;20178;-68
2023/04/27 00:48:52;;;;;;;6.67;3.27;;;;;;;;;;5003757;28;20207;-69
2023/04/27 00:51:56;;;;;;;3.63;2.90;;;;;;;;;;5003145;28;20699;-69
2023/04/27 00:55:03;;;;;;;4.70;3.00;;;;;;;;;;5003750;28;20201;-69
2023/04/27 00:58:07;;;;;;;4.90;3.10;;;;;;;;;;5015408;28;20194;-69
2023/04/27 01:01:12;;;;;;;7.27;2.90;;;;;;;;;;5002992;28;20221;-69
2023/04/27 01:04:16;;;;;;;3.40;2.67;;;;;;;;;;5015020;28;20182;-69
2023/04/27 01:07:24;;;;;;;4.30;3.30;;;;;;;;;;4992221;28;20197;-69
2023/04/27 01:10:28;;;;;;;4.73;2.87;;;;;;;;;;5002900;28;20594;-69
2023/04/27 01:13:32;;;;;;;7.57;3.67;;;;;;;;;;5003272;28;20201;-69
2023/04/27 01:16:36;;;;;;;5.57;3.57;;;;;;;;;;5002839;28;20177;-69
2023/04/27 01:19:41;;;;;;;4.93;2.93;;;;;;;;;;4992091;28;20173;-69
2023/04/27 01:22:45;;;;;;;5.73;3.27;;;;;;;;;;5002934;28;20688;-69
2023/04/27 01:25:49;;;;;;;5.50;3.47;;;;;;;;;;5002579;28;20197;-69
2023/04/27 01:28:53;;;;;;;4.03;2.80;;;;;;;;;;5002732;28;20692;-69
2023/04/27 01:31:58;;;;;;;4.40;3.27;;;;;;;;;;5002689;28;20212;-69
2023/04/27 01:35:02;;;;;;;5.27;3.03;;;;;;;;;;5002740;28;20523;-69
2023/04/27 01:38:06;;;;;;;5.07;3.00;;;;;;;;;;5002319;28;20174;-69
2023/04/27 01:41:10;;;;;;;5.00;2.80;;;;;;;;;;5002604;28;20217;-69
2023/04/27 01:44:14;;;;;;;4.27;2.97;;;;;;;;;;4991611;28;20181;-69
2023/04/27 01:47:19;;;;;;;4.60;3.23;;;;;;;;;;5002497;28;20182;-69
2023/04/27 01:50:23;;;;;;;4.00;2.53;;;;;;;;;;5002459;28;20178;-69
2023/04/27 01:53:28;;;;;;;3.87;2.93;;;;;;;;;;5002616;28;20518;-69
2023/04/27 01:56:33;;;;;;;6.30;3.00;;;;;;;;;;5013855;28;20632;-69
2023/04/27 01:59:37;;;;;;;6.37;3.20;;;;;;;;;;5002436;28;20174;-69
2023/04/27 02:02:41;;;;;;;5.20;2.97;;;;;;;;;;5002196;28;20213;-69
2023/04/27 02:05:46;;;;;;;3.50;3.20;;;;;;;;;;5014291;28;20182;-69
2023/04/27 02:08:50;;;;;;;4.27;3.10;;;;;;;;;;5001793;28;20209;-69
2023/04/27 02:11:54;;;;;;;4.77;2.77;;;;;;;;;;4990625;28;20627;-69
2023/04/27 02:14:59;;;;;;;5.17;2.70;;;;;;;;;;5014043;28;20628;-69
2023/04/27 02:18:03;;;;;;;4.13;2.83;;;;;;;;;;5001980;28;20174;-69
2023/04/27 02:21:08;;;;;;;3.63;2.83;;;;;;;;;;5001758;28;20216;-69
2023/04/27 02:24:13;;;;;;;5.23;3.07;;;;;;;;;;5001563;28;20197;-69
2023/04/27 02:27:17;;;;;;;5.23;3.30;;;;;;;;;;5001843;28;20189;-69
2023/04/27 02:30:21;;;;;;;6.73;3.23;;;;;;;;;;4990820;28;20181;-68
2023/04/27 02:33:25;;;;;;;5.53;3.30;;;;;;;;;;5002025;28;20181;-69
2023/04/27 02:36:30;;;;;;;4.67;3.07;;;;;;;;;;5001046;28;20208;-69
2023/04/27 02:39:34;;;;;;;3.90;2.80;;;;;;;;;;5001901;28;20186;-69
2023/04/27 02:42:38;;;;;;;3.47;2.90;;;;;;;;;;5013644;28;20213;-69
2023/04/27 02:45:42;;;;;;;3.73;2.77;;;;;;;;;;5001289;28;20197;-68
2023/04/27 02:48:47;;;;;;;4.90;3.00;;;;;;;;;;5013524;28;20217;-69
2023/04/27 02:51:51;;;;;;;4.93;3.30;;;;;;;;;;5001422;28;20217;-69
2023/04/27 02:54:56;;;;;;;3.13;2.73;;;;;;;;;;5001474;28;20190;-69
2023/04/27 02:58:00;;;;;;;5.13;2.97;;;;;;;;;;4990311;28;20181;-69
2023/04/27 03:01:04;;;;;;;4.60;2.90;;;;;;;;;;5001513;28;20687;-69
2023/04/27 03:04:08;;;;;;;4.90;2.87;;;;;;;;;;5013541;28;20208;-69
2023/04/27 03:07:12;;;;;;;5.40;3.07;;;;;;;;;;5001487;28;20177;-69
2023/04/27 03:10:16;;;;;;;4.87;3.17;;;;;;;;;;5001017;28;20205;-69
2023/04/27 03:13:21;;;;;;;6.57;3.23;;;;;;;;;;5001647;28;20177;-69
2023/04/27 03:16:25;;;;;;;7.60;3.17;;;;;;;;;;5001236;28;20185;-69
2023/04/27 03:19:29;;;;;;;6.30;3.00;;;;;;;;;;5013609;28;20177;-69
2023/04/27 03:22:35;;;;;;;5.17;3.10;;;;;;;;;;4990123;28;20217;-69
2023/04/27 03:25:39;;;;;;;5.63;3.13;;;;;;;;;;5001101;28;20178;-68
2023/04/27 03:28:45;;;;;;;7.33;3.27;;;;;;;;;;5001654;28;20209;-69
2023/04/27 03:31:49;;;;;;;6.70;3.20;;;;;;;;;;5016994;28;20217;-69
2023/04/27 03:34:53;;;;;;;4.97;3.20;;;;;;;;;;5004708;28;20202;-69
2023/04/27 03:37:57;;;;;;;7.27;2.97;;;;;;;;;;5038347;23;20232;-73
2023/04/27 03:41:01;;;;;;;5.03;3.20;;;;;;;;;;5024247;28;20212;-74
2023/04/27 03:44:05;;;;;;;7.47;3.10;;;;;;;;;;5013333;28;20173;-74
2023/04/27 03:47:10;;;;;;;7.27;3.37;;;;;;;;;;5024182;28;20176;-73
2023/04/27 03:50:16;;;;;;;8.30;3.30;;;;;;;;;;5024296;28;20205;-73
2023/04/27 03:53:20;;;;;;;6.57;3.17;;;;;;;;;;5013075;28;20176;-73
2023/04/27 03:56:25;;;;;;;5.43;3.23;;;;;;;;;;5036416;28;20185;-74
2023/04/27 03:59:29;;;;;;;5.07;3.47;;;;;;;;;;5024217;28;20177;-73
2023/04/27 04:02:33;;;;;;;4.80;3.50;;;;;;;;;;5024065;28;20224;-73
2023/04/27 04:05:37;;;;;;;5.87;3.33;;;;;;;;;;5024361;28;20185;-73
2023/04/27 04:08:42;;;;;;;8.80;3.10;;;;;;;;;;5012878;28;20213;-73
2023/04/27 04:11:46;;;;;;;6.80;3.10;;;;;;;;;;5036031;28;20216;-73
2023/04/27 04:14:52;;;;;;;4.13;2.97;;;;;;;;;;5023651;28;20181;-73
2023/04/27 04:17:56;;;;;;;3.67;2.90;;;;;;;;;;5024047;28;20173;-73
2023/04/27 04:21:00;;;;;;;4.47;3.07;;;;;;;;;;5024268;28;20208;-74
2023/04/27 04:24:06;;;;;;;6.33;3.20;;;;;;;;;;5035925;28;20510;-73
2023/04/27 04:27:10;;;;;;;3.27;2.70;;;;;;;;;;5012574;28;20651;-73
2023/04/27 04:30:15;;;;;;;5.00;2.80;;;;;;;;;;5001026;28;20208;-74
2023/04/27 04:33:19;;;;;;;3.57;2.83;;;;;;;;;;5024110;28;20181;-73
2023/04/27 04:36:24;;;;;;;5.07;2.70;;;;;;;;;;5035707;28;20177;-73
2023/04/27 04:39:32;;;;;;;4.73;2.90;;;;;;;;;;5022854;28;20165;-74
2023/04/27 04:42:36;;;;;;;7.67;2.70;;;;;;;;;;5011980;28;20564;-73
2023/04/27 04:45:41;;;;;;;5.07;2.70;;;;;;;;;;5023493;28;20185;-73
2023/04/27 04:48:45;;;;;;;4.43;2.87;;;;;;;;;;5000935;28;20216;-74
2023/04/27 04:51:49;;;;;;;4.30;3.00;;;;;;;;;;5023153;28;20212;-73
2023/04/27 04:54:54;;;;;;;6.27;2.70;;;;;;;;;;5035348;28;20177;-74
2023/04/27 04:57:58;;;;;;;4.70;2.80;;;;;;;;;;5001137;28;20185;-74
2023/04/27 05:01:05;;;;;;;13.03;4.30;;;;;;;;;;5022842;28;20213;-73
2023/04/27 05:04:09;;;;;;;6.60;3.20;;;;;;;;;;5011997;28;20650;-74
2023/04/27 05:07:13;;;;;;;4.47;2.77;;;;;;;;;;5022937;28;20180;-74
2023/04/27 05:10:18;;;;;;;6.60;3.20;;;;;;;;;;5022509;28;20576;-74
2023/04/27 05:13:23;;;;;;;8.00;3.50;;;;;;;;;;5022770;28;20192;-74
2023/04/27 05:16:27;;;;;;;9.03;3.87;;;;;;;;;;5034681;28;20173;-73
2023/04/27 05:19:31;;;;;;;8.43;3.80;;;;;;;;;;5022369;28;20181;-73
2023/04/27 05:22:36;;;;;;;8.37;3.63;;;;;;;;;;5034382;28;20208;-74
2023/04/27 05:25:40;;;;;;;7.37;4.10;;;;;;;;;;5034636;28;20183;-73
2023/04/27 05:28:45;;;;;;;7.33;3.53;;;;;;;;;;5034502;28;20181;-73
2023/04/27 05:31:50;;;;;;;7.10;3.87;;;;;;;;;;5034484;28;20212;-74
2023/04/27 05:34:54;;;;;;;9.87;5.33;;;;;;;;;;5022322;28;20200;-74
2023/04/27 05:37:58;;;;;;;10.23;5.03;;;;;;;;;;5032928;28;20548;-73
2023/04/27 05:41:02;;;;;;;8.10;3.80;;;;;;;;;;5008437;28;20216;-73
2023/04/27 05:44:06;;;;;;;6.47;4.33;;;;;;;;;;5020171;28;20188;-73
2023/04/27 05:47:10;;;;;;;5.20;3.40;;;;;;;;;;5010796;28;20204;-73
2023/04/27 05:50:16;;;;;;;6.37;3.90;;;;;;;;;;5033732;28;20224;-73
2023/04/27 05:53:20;;;;;;;7.57;3.87;;;;;;;;;;5021493;28;20177;-73
2023/04/27 05:56:25;;;;;;;14.47;4.13;;;;;;;;;;5010304;28;20180;-73
2023/04/27 05:59:29;;;;;;;6.73;3.90;;;;;;;;;;5021825;28;20181;-73
2023/04/27 06:02:33;;;;;;;8.17;4.27;;;;;;;;;;5034111;28;20216;-73
2023/04/27 06:05:37;;;;;;;5.93;3.47;;;;;;;;;;5034070;28;20624;-73
2023/04/27 06:08:41;;;;;;;10.53;6.67;;;;;;;;;;5009810;28;20181;-73
2023/04/27 06:11:46;;;;;;;13.90;9.57;;;;;;;;;;5033413;28;20216;-74
2023/04/27 06:14:50;;;;;;;6.83;5.23;;;;;;;;;;5021658;28;20181;-74
2023/04/27 06:17:54;;;;;;;6.77;4.30;;;;;;;;;;5033476;28;20180;-74
2023/04/27 06:21:00;;;;;;;9.17;3.73;;;;;;;;;;5021228;28;20212;-74
2023/04/27 06:24:04;;;;;;;7.93;3.70;;;;;;;;;;5033639;28;20184;-74
2023/04/27 06:27:08;;;;;;;6.67;3.90;;;;;;;;;;5033618;28;20200;-74
2023/04/27 06:30:12;;;;;;;11.87;3.90;;;;;;;;;;5021278;28;20579;-74
2023/04/27 06:33:17;;;;;;;6.57;3.77;;;;;;;;;;5033548;28;20185;-74
2023/04/27 06:36:21;;;;;;;7.67;3.57;;;;;;;;;;5033451;28;20205;-74
2023/04/27 06:39:25;;;;;;;9.07;3.53;;;;;;;;;;5021299;28;20197;-74
2023/04/27 06:42:29;;;;;;;5.93;3.30;;;;;;;;;;5009602;28;20561;-74
2023/04/27 06:45:33;;;;;;;7.23;3.03;;;;;;;;;;5033301;28;20189;-73
2023/04/27 06:48:38;;;;;;;10.10;3.33;;;;;;;;;;5010195;28;20177;-74
2023/04/27 06:51:42;;;;;;;7.30;3.83;;;;;;;;;;5033292;28;20208;-73
2023/04/27 06:54:46;;;;;;;6.13;3.40;;;;;;;;;;5033466;28;20517;-74
2023/04/27 06:57:50;;;;;;;7.13;3.67;;;;;;;;;;5020857;28;20541;-74
2023/04/27 07:00:54;;;;;;;5.93;3.30;;;;;;;;;;5033076;28;20683;-74
2023/04/27 07:03:58;;;;;;;6.60;3.10;;;;;;;;;;5035571;28;20180;-74
2023/04/27 07:07:03;;;;;;;4.70;3.00;;;;;;;;;;5024870;28;20204;-73
2023/04/27 07:10:08;;;;;;;6.60;3.60;;;;;;;;;;5024954;28;20564;-74
2023/04/27 07:13:12;;;;;;;5.67;3.57;;;;;;;;;;5014084;28;20512;-74
2023/04/27 07:16:16;;;;;;;5.97;3.70;;;;;;;;;;5037195;28;20185;-74
2023/04/27 07:19:20;;;;;;;6.07;3.37;;;;;;;;;;5025223;28;20184;-74
2023/04/27 07:22:24;;;;;;;6.13;3.27;;;;;;;;;;5025168;28;20208;-74
2023/04/27 07:25:29;;;;;;;5.00;3.30;;;;;;;;;;5024751;28;20180;-74
2023/04/27 07:28:37;;;;;;;5.57;3.23;;;;;;;;;;5037347;28;20300;-74
2023/04/27 07:31:41;;;;;;;20.60;3.63;;;;;;;;;;5036563;28;20225;-73
2023/04/27 07:34:47;;;;;;;10.33;3.03;;;;;;;;;;5036856;28;20632;-74
2023/04/27 07:37:51;;;;;;;4.00;2.70;;;;;;;;;;5036511;28;20196;-73
2023/04/27 07:41:05;;;;;;;3.47;2.20;;;;;;;;;;5036623;28;20216;-74
2023/04/27 07:44:11;;;;;;;5.07;2.43;;;;;;;;;;5036903;28;20616;-74
2023/04/27 07:47:17;;;;;;;6.13;2.50;;;;;;;;;;5036867;28;20627;-74
2023/04/27 07:50:24;;;;;;;5.03;2.70;;;;;;;;;;5036169;28;20556;-74
2023/04/27 07:53:28;;;;;;;8.50;2.53;;;;;;;;;;5036446;28;20652;-74
2023/04/27 07:56:32;;;;;;;6.17;2.30;;;;;;;;;;5036676;28;20180;-74
2023/04/27 07:59:37;;;;;;;3.80;2.50;;;;;;;;;;5024258;28;20177;-74
2023/04/27 08:02:41;;;;;;;5.00;2.10;;;;;;;;;;5036027;28;20216;-74
2023/04/27 08:05:46;;;;;;;5.80;2.17;;;;;;;;;;5036562;28;20512;-74
2023/04/27 08:08:50;;;;;;;5.13;2.47;;;;;;;;;;5036343;28;20177;-74
2023/04/27 08:11:56;;;;;;;5.03;2.50;;;;;;;;;;5035899;28;20213;-74
2023/04/27 08:15:01;;;;;;;4.27;2.23;;;;;;;;;;5035359;28;20632;-74
2023/04/27 08:18:05;;;;;;;3.90;2.17;;;;;;;;;;5036029;28;20181;-74
2023/04/27 08:21:09;;;;;;;5.77;2.27;;;;;;;;;;5035890;28;20212;-74
2023/04/27 08:24:13;;;;;;;3.10;2.03;;;;;;;;;;5012320;28;20202;-73
2023/04/27 08:27:17;;;;;;;4.33;2.10;;;;;;;;;;5035614;28;20524;-74
2023/04/27 08:30:21;;;;;;;8.90;2.60;;;;;;;;;;5012456;28;20209;-74
2023/04/27 08:33:25;;;;;;;5.90;2.47;;;;;;;;;;5035763;28;20181;-73
2023/04/27 08:36:29;;;;;;;6.37;2.50;;;;;;;;;;5036235;28;20201;-73
2023/04/27 08:39:34;;;;;;;5.03;2.73;;;;;;;;;;5035261;28;20196;-74
2023/04/27 08:42:40;;;;;;;5.50;2.07;;;;;;;;;;5035264;28;20208;-74
2023/04/27 08:45:48;;;;;;;5.40;2.40;;;;;;;;;;5035637;28;20640;-74
2023/04/27 08:48:53;;;;;;;7.83;2.60;;;;;;;;;;5035909;28;20181;-74
2023/04/27 08:51:56;;;;;;;6.50;2.63;;;;;;;;;;5035469;28;20699;-74
2023/04/27 08:55:01;;;;;;;5.63;2.40;;;;;;;;;;5035313;28;20181;-74
2023/04/27 08:58:05;;;;;;;5.07;2.60;;;;;;;;;;5035560;28;20509;-74
2023/04/27 09:01:10;;;;;;;3.87;2.47;;;;;;;;;;5034948;28;20234;-74
2023/04/27 09:04:14;;;;;;;6.37;2.30;;;;;;;;;;5023306;28;20185;-74
2023/04/27 09:07:18;;;;;;;5.33;2.70;;;;;;;;;;5034891;28;20180;-74
2023/04/27 09:10:23;;;;;;;3.53;2.40;;;;;;;;;;5034888;28;20213;-74
2023/04/27 09:13:37;;;;;;;6.10;2.67;;;;;;;;;;5035471;28;20177;-74
2023/04/27 09:16:41;;;;;;;7.60;2.83;;;;;;;;;;5022789;28;20248;-74
2023/04/27 09:19:45;;;;;;;5.30;2.40;;;;;;;;;;5022759;28;20172;-73
2023/04/27 09:22:56;;;;;;;6.83;2.23;;;;;;;;;;5035041;28;20220;-74
2023/04/27 09:26:04;;;;;;;6.10;2.37;;;;;;;;;;5022468;28;20181;-74
2023/04/27 09:29:09;;;;;;;6.20;2.50;;;;;;;;;;5035347;28;20177;-74
2023/04/27 09:32:19;;;;;;;4.50;2.43;;;;;;;;;;5022383;28;20228;-74
2023/04/27 09:35:25;;;;;;;6.00;2.60;;;;;;;;;;5034610;28;20524;-74
2023/04/27 09:38:30;;;;;;;12.73;2.50;;;;;;;;;;5022144;28;20687;-74
2023/04/27 09:41:34;;;;;;;7.23;2.53;;;;;;;;;;5034625;28;20220;-74
2023/04/27 09:44:38;;;;;;;7.57;2.57;;;;;;;;;;5022133;28;20197;-74
2023/04/27 09:47:43;;;;;;;5.47;2.60;;;;;;;;;;5034051;28;20180;-75
2023/04/27 09:50:49;;;;;;;5.53;2.50;;;;;;;;;;5034089;28;20220;-74
2023/04/27 09:53:57;;;;;;;3.50;2.33;;;;;;;;;;5034117;28;20196;-74
2023/04/27 09:57:17;;;;;;;4.17;2.20;;;;;;;;;;5010409;28;20177;-75
2023/04/27 10:00:40;;;;;;;7.77;2.33;;;;;;;;;;5034263;28;20177;-75
2023/04/27 10:04:06;;;;;;;5.77;2.30;;;;;;;;;;5034041;28;20189;-74
2023/04/27 10:07:11;;;;;;;7.60;2.47;;;;;;;;;;5034288;28;20177;-75
2023/04/27 10:10:17;;;;;;;3.30;1.97;;;;;;;;;;5033944;28;20521;-74
2023/04/27 10:13:24;;;;;;;5.23;2.30;;;;;;;;;;5022292;28;20185;-74
2023/04/27 10:16:58;;;;;;;5.70;2.73;;;;;;;;;;5033799;28;20177;-75
2023/04/27 10:20:08;;;;;;;3.03;2.00;;;;;;;;;;5033794;28;20180;-75
2023/04/27 10:23:24;;;;;;;5.97;2.20;;;;;;;;;;5033607;28;20187;-75
2023/04/27 10:26:28;;;;;;;5.53;2.70;;;;;;;;;;5033654;28;20188;-75
2023/04/27 10:29:44;;;;;;;6.93;2.30;;;;;;;;;;5033721;28;20187;-74
2023/04/27 10:32:57;;;;;;;7.90;2.60;;;;;;;;;;5033551;28;20215;-75
2023/04/27 10:36:01;;;;;;;5.63;2.70;;;;;;;;;;5033786;28;20199;-75
2023/04/27 10:39:15;;;;;;;4.23;2.30;;;;;;;;;;5032684;28;20209;-75
2023/04/27 10:42:29;;;;;;;5.23;2.40;;;;;;;;;;5021524;28;20217;-75
2023/04/27 10:45:34;;;;;;;5.07;2.27;;;;;;;;;;5033150;28;20189;-75
2023/04/27 10:48:38;;;;;;;4.33;2.10;;;;;;;;;;5033649;28;20504;-74
2023/04/27 10:51:42;;;;;;;4.90;2.53;;;;;;;;;;5033221;28;20228;-74
2023/04/27 10:54:46;;;;;;;4.27;2.50;;;;;;;;;;5033068;28;20177;-74
2023/04/27 10:57:53;;;;;;;5.93;2.33;;;;;;;;;;5033316;28;20180;-75
2023/04/27 11:00:58;;;;;;;5.67;2.80;;;;;;;;;;5033008;28;20214;-75
2023/04/27 11:04:02;;;;;;;5.03;2.37;;;;;;;;;;5033269;28;20187;-75
2023/04/27 11:07:08;;;;;;;5.50;2.17;;;;;;;;;;5033776;28;20184;-74
2023/04/27 11:10:18;;;;;;;5.80;2.20;;;;;;;;;;5032973;28;20182;-75
2023/04/27 11:13:24;;;;;;;5.17;2.37;;;;;;;;;;5033433;28;20515;-75
2023/04/27 11:16:30;;;;;;;4.90;2.38;;;;;;;;;;5033131;28;20638;-74
2023/04/27 11:19:45;;;;;;;6.88;2.05;;;;;;;;;;5033193;28;20189;-74
2023/04/27 11:22:50;;;;;;;5.55;2.20;;;;;;;;;;5020579;28;20210;-75
2023/04/27 11:25:55;;;;;;;10.32;2.30;;;;;;;;;;5020603;28;20565;-74
2023/04/27 11:29:04;;;;;;;3.45;2.05;;;;;;;;;;5033065;28;20181;-74
2023/04/27 11:32:18;;;;;;;6.70;2.28;;;;;;;;;;5020709;28;20567;-74
2023/04/27 11:35:33;;;;;;;5.00;2.22;;;;;;;;;;5032937;28;20182;-75
2023/04/27 11:38:37;;;;;;;5.38;1.90;;;;;;;;;;5032553;28;20209;-75
2023/04/27 11:41:45;;;;;;;3.47;1.70;;;;;;;;;;5033005;28;20213;-75
2023/04/27 11:45:01;;;;;;;7.30;2.30;;;;;;;;;;5032564;28;20200;-75
2023/04/27 11:48:06;;;;;;;6.82;1.85;;;;;;;;;;5020613;28;20202;-75
2023/04/27 11:51:11;;;;;;;6.47;2.42;;;;;;;;;;5022946;28;20232;-75
2023/04/27 11:54:15;;;;;;;6.72;2.83;;;;;;;;;;5036484;28;20180;-75
2023/04/27 11:57:28;;;;;;;5.10;2.67;;;;;;;;;;5036144;28;20198;-75
2023/04/27 12:00:32;;;;;;;5.95;2.58;;;;;;;;;;5024397;28;20643;-75
2023/04/27 12:03:36;;;;;;;6.03;2.92;;;;;;;;;;5036256;28;20183;-75
2023/04/27 12:06:40;;;;;;;4.85;2.30;;;;;;;;;;5035990;28;20634;-75
2023/04/27 12:09:44;;;;;;;6.38;2.63;;;;;;;;;;5023774;28;20187;-74
2023/04/27 12:12:48;;;;;;;7.05;2.70;;;;;;;;;;5035664;28;20232;-75
2023/04/27 12:15:52;;;;;;;5.53;2.63;;;;;;;;;;5035711;28;20199;-74
2023/04/27 12:18:56;;;;;;;4.30;2.70;;;;;;;;;;5035992;28;20199;-75
2023/04/27 12:22:00;;;;;;;3.75;2.20;;;;;;;;;;5035691;28;20213;-74
2023/04/27 12:25:05;;;;;;;8.63;2.90;;;;;;;;;;5035903;28;20187;-74
2023/04/27 12:28:10;;;;;;;6.37;2.80;;;;;;;;;;5035866;28;20279;-74
2023/04/27 12:31:15;;;;;;;4.83;2.47;;;;;;;;;;5035491;28;20226;-75
2023/04/27 12:34:19;;;;;;;6.47;3.00;;;;;;;;;;5035758;28;20184;-75
2023/04/27 12:37:24;;;;;;;6.93;2.70;;;;;;;;;;5035523;28;20205;-74
2023/04/27 12:40:28;;;;;;;9.03;2.70;;;;;;;;;;5011991;28;20190;-75
2023/04/27 12:43:35;;;;;;;4.53;2.20;;;;;;;;;;5035802;28;20195;-74
2023/04/27 12:46:40;;;;;;;8.25;2.58;;;;;;;;;;5023098;28;20177;-74
2023/04/27 12:49:44;;;;;;;6.43;3.43;;;;;;;;;;5023596;28;20522;-75
2023/04/27 12:52:49;;;;;;;7.97;4.65;;;;;;;;;;5035229;28;20225;-75
2023/04/27 12:55:53;;;;;;;4.25;2.47;;;;;;;;;;5035574;28;20184;-75
2023/04/27 12:58:57;;;;;;;7.97;4.47;;;;;;;;;;5035216;28;20187;-75
2023/04/27 13:02:02;;;;;;;4.07;2.97;;;;;;;;;;5034470;28;20555;-75
2023/04/27 13:05:06;;;;;;;12.38;7.88;;;;;;;;;;5035362;28;20203;-74
2023/04/27 13:08:10;;;;;;;9.20;2.78;;;;;;;;;;5023205;28;20178;-74
2023/04/27 13:11:15;;;;;;;5.80;3.20;;;;;;;;;;5034814;28;20213;-75
2023/04/27 13:14:20;;;;;;;10.65;5.80;;;;;;;;;;5034955;28;20525;-74
2023/04/27 13:17:24;;;;;;;6.63;2.78;;;;;;;;;;5023043;28;20631;-75
2023/04/27 13:20:28;;;;;;;6.32;2.78;;;;;;;;;;5023005;28;20187;-75
2023/04/27 13:23:32;;;;;;;5.13;2.00;;;;;;;;;;5022395;28;20179;-75
2023/04/27 13:26:36;;;;;;;7.00;2.72;;;;;;;;;;5035070;28;20184;-75
2023/04/27 13:29:41;;;;;;;4.78;2.42;;;;;;;;;;5034472;28;20183;-75
2023/04/27 13:32:45;;;;;;;7.60;2.42;;;;;;;;;;5034503;28;20222;-75
2023/04/27 13:35:50;;;;;;;5.78;2.17;;;;;;;;;;5034315;28;20179;-75
2023/04/27 13:38:54;;;;;;;5.25;2.30;;;;;;;;;;5034460;28;20204;-75
2023/04/27 13:41:58;;;;;;;6.55;2.42;;;;;;;;;;5034065;28;20213;-75
2023/04/27 13:45:03;;;;;;;6.82;2.22;;;;;;;;;;5034626;28;20192;-75
2023/04/27 13:48:08;;;;;;;12.75;3.00;;;;;;;;;;5034391;28;20627;-75
2023/04/27 13:51:12;;;;;;;7.85;2.42;;;;;;;;;;5021968;28;20691;-75
2023/04/27 13:54:16;;;;;;;6.85;2.28;;;;;;;;;;5021720;28;20211;-75
2023/04/27 13:57:20;;;;;;;6.97;2.45;;;;;;;;;;5033861;28;20206;-75
2023/04/27 14:00:25;;;;;;;7.50;2.30;;;;;;;;;;5034332;28;20180;-75
2023/04/27 14:03:29;;;;;;;6.25;2.17;;;;;;;;;;5033765;28;20541;-75
2023/04/27 14:06:33;;;;;;;5.07;2.33;;;;;;;;;;5021847;28;20519;-75
2023/04/27 14:09:37;;;;;;;4.38;1.83;;;;;;;;;;5033925;28;20182;-75
2023/04/27 14:12:41;;;;;;;5.63;2.42;;;;;;;;;;5032900;28;20234;-76
2023/04/27 14:15:46;;;;;;;4.82;2.17;;;;;;;;;;5033767;28;20196;-75
2023/04/27 14:18:51;;;;;;;6.37;2.70;;;;;;;;;;5010465;28;20181;-76
2023/04/27 14:21:55;;;;;;;6.77;2.73;;;;;;;;;;5033504;28;20220;-76
2023/04/27 14:24:59;;;;;;;5.77;2.60;;;;;;;;;;5033575;28;20179;-77
2023/04/27 14:28:05;;;;;;;14.43;3.43;;;;;;;;;;5009851;28;20203;-76
2023/04/27 14:31:09;;;;;;;9.20;2.60;;;;;;;;;;5021260;28;20570;-75
2023/04/27 14:34:13;;;;;;;7.97;2.40;;;;;;;;;;5033654;28;20176;-76
2023/04/27 14:37:17;;;;;;;3.10;1.90;;;;;;;;;;5033132;28;20670;-76
2023/04/27 14:40:21;;;;;;;6.70;2.47;;;;;;;;;;5021198;28;20190;-76
2023/04/27 14:43:25;;;;;;;7.90;2.20;;;;;;;;;;5033525;28;20177;-76
2023/04/27 14:46:29;;;;;;;5.53;2.40;;;;;;;;;;5021240;28;20187;-75
2023/04/27 14:49:33;;;;;;;3.87;2.03;;;;;;;;;;5033461;28;20181;-75
2023/04/27 14:52:38;;;;;;;4.60;2.23;;;;;;;;;;5032978;28;20703;-75
2023/04/27 14:55:44;;;;;;;3.90;2.00;;;;;;;;;;5033636;28;20624;-75
2023/04/27 14:58:48;;;;;;;5.03;2.13;;;;;;;;;;5033278;28;20213;-75
2023/04/27 15:01:52;;;;;;;4.37;2.20;;;;;;;;;;5032945;28;20217;-75
2023/04/27 15:04:56;;;;;;;6.37;3.00;;;;;;;;;;5032984;28;20177;-75
2023/04/27 15:08:01;;;;;;;5.20;2.30;;;;;;;;;;5033465;28;20525;-75
2023/04/27 15:11:05;;;;;;;3.10;2.40;;;;;;;;;;5021199;28;20216;-75
2023/04/27 15:14:10;;;;;;;5.43;2.07;;;;;;;;;;5021082;28;20636;-75
2023/04/27 15:17:15;;;;;;;5.97;2.40;;;;;;;;;;5020765;28;20205;-75
2023/04/27 15:20:19;;;;;;;6.13;2.00;;;;;;;;;;5033111;28;20540;-75
2023/04/27 15:23:24;;;;;;;6.23;2.27;;;;;;;;;;5033302;28;20173;-75
2023/04/27 15:26:28;;;;;;;4.50;2.53;;;;;;;;;;5037325;28;20185;-75
2023/04/27 15:29:32;;;;;;;5.43;2.63;;;;;;;;;;5024913;28;20172;-75
2023/04/27 15:32:36;;;;;;;2.97;1.93;;;;;;;;;;5024314;28;20228;-75
2023/04/27 15:35:41;;;;;;;6.07;2.50;;;;;;;;;;5036869;28;20177;-75
2023/04/27 15:38:45;;;;;;;6.17;2.40;;;;;;;;;;5029838;23;20695;-70
2023/04/27 15:41:49;;;;;;;5.40;2.03;;;;;;;;;;5016789;28;20217;-70
2023/04/27 15:44:53;;;;;;;4.40;1.97;;;;;;;;;;4993852;28;20181;-70
2023/04/27 15:47:57;;;;;;;4.80;1.93;;;;;;;;;;5004583;28;20181;-70
2023/04/27 15:51:02;;;;;;;6.33;1.90;;;;;;;;;;5017009;28;20217;-70
2023/04/27 15:54:07;;;;;;;5.73;2.20;;;;;;;;;;5016406;28;20209;-70
2023/04/27 15:57:11;;;;;;;5.53;1.90;;;;;;;;;;5016455;28;20177;-70
2023/04/27 16:00:16;;;;;;;6.13;2.70;;;;;;;;;;4993624;28;20177;-70
2023/04/27 16:03:21;;;;;;;7.67;2.20;;;;;;;;;;5016807;28;20174;-70
2023/04/27 16:06:30;;;;;;;4.67;2.43;;;;;;;;;;5016275;28;20186;-70
2023/04/27 16:09:35;;;;;;;4.27;2.07;;;;;;;;;;5004456;28;20181;-70
2023/04/27 16:12:39;;;;;;;19.77;2.93;;;;;;;;;;5016285;28;20561;-70
2023/04/27 16:15:43;;;;;;;5.10;2.53;;;;;;;;;;5016326;28;20185;-69
2023/04/27 16:18:47;;;;;;;7.90;2.67;;;;;;;;;;5016799;28;20501;-70
2023/04/27 16:21:51;;;;;;;5.03;2.23;;;;;;;;;;5015912;28;20553;-69
2023/04/27 16:24:56;;;;;;;7.60;2.60;;;;;;;;;;5004046;28;20178;-69
2023/04/27 16:28:00;;;;;;;3.50;2.10;;;;;;;;;;5016225;28;20517;-69
2023/04/27 16:31:04;;;;;;;4.67;2.57;;;;;;;;;;4992434;28;20221;-70
2023/04/27 16:34:08;;;;;;;4.13;2.63;;;;;;;;;;5003501;28;20209;-70
2023/04/27 16:37:12;;;;;;;3.90;2.27;;;;;;;;;;5002729;28;20173;-70
2023/04/27 16:40:16;;;;;;;5.63;2.57;;;;;;;;;;5015716;28;20173;-70
2023/04/27 16:43:21;;;;;;;7.43;2.37;;;;;;;;;;4992387;28;20182;-70
2023/04/27 16:46:25;;;;;;;3.97;2.30;;;;;;;;;;5015674;28;20178;-70
2023/04/27 16:49:29;;;;;;;4.23;2.57;;;;;;;;;;5015616;28;20186;-70
2023/04/27 16:52:34;;;;;;;5.37;2.63;;;;;;;;;;5003292;28;20229;-70
2023/04/27 16:55:38;;;;;;;3.33;2.07;;;;;;;;;;5015200;28;20644;-71
2023/04/27 16:58:42;;;;;;;4.87;2.50;;;;;;;;;;5015704;28;20178;-70
2023/04/27 17:01:46;;;;;;;3.10;2.60;;;;;;;;;;5003079;28;20217;-70
2023/04/27 17:04:50;;;;;;;5.80;2.43;;;;;;;;;;5003148;28;20173;-71
2023/04/27 17:07:54;;;;;;;5.20;2.53;;;;;;;;;;5002825;28;20197;-70
2023/04/27 17:10:58;;;;;;;4.43;2.30;;;;;;;;;;5015308;28;20216;-70
2023/04/27 17:14:02;;;;;;;5.87;2.40;;;;;;;;;;5015082;28;20561;-70
2023/04/27 17:17:06;;;;;;;2.83;1.80;;;;;;;;;;5002714;28;20181;-70
2023/04/27 17:20:11;;;;;;;4.27;1.80;;;;;;;;;;5014985;28;20185;-70
2023/04/27 17:23:15;;;;;;;7.33;2.33;;;;;;;;;;5015088;28;20178;-71
2023/04/27 17:26:20;;;;;;;2.90;2.10;;;;;;;;;;5002569;28;20205;-71
2023/04/27 17:29:25;;;;;;;4.50;1.90;;;;;;;;;;5002820;28;20182;-70
2023/04/27 17:32:29;;;;;;;3.03;1.90;;;;;;;;;;5014715;28;20220;-70
2023/04/27 17:35:33;;;;;;;5.20;1.90;;;;;;;;;;5014754;28;20652;-71
2023/04/27 17:38:38;;;;;;;3.00;1.70;;;;;;;;;;5014445;28;20548;-70
2023/04/27 17:41:43;;;;;;;5.43;2.07;;;;;;;;;;5015225;28;20217;-70
2023/04/27 17:44:47;;;;;;;3.57;1.73;;;;;;;;;;5014300;28;20181;-71
2023/04/27 17:47:50;;;;;;;2.87;1.50;;;;;;;;;;5002165;28;20193;-71
2023/04/27 17:50:55;;;;;;;2.90;1.33;;;;;;;;;;5014505;28;20220;-70
2023/04/27 17:53:59;;;;;;;4.37;2.10;;;;;;;;;;5014449;28;20541;-70
2023/04/27 17:57:03;;;;;;;4.27;1.90;;;;;;;;;;4991420;28;20178;-70
2023/04/27 18:00:11;;;;;;;6.73;1.80;;;;;;;;;;5014165;28;20185;-70
2023/04/27 18:03:15;;;;;;;4.07;1.90;;;;;;;;;;5014285;28;20656;-70
2023/04/27 18:06:20;;;;;;;2.50;1.27;;;;;;;;;;5013964;28;20178;-70
2023/04/27 18:09:25;;;;;;;5.83;1.70;;;;;;;;;;5002105;28;20197;-70
2023/04/27 18:12:29;;;;;;;1.97;1.37;;;;;;;;;;5014054;28;20213;-70
2023/04/27 18:15:34;;;;;;;5.63;1.83;;;;;;;;;;5002091;28;20169;-70
2023/04/27 18:18:38;;;;;;;4.37;1.70;;;;;;;;;;5014099;28;20201;-70
2023/04/27 18:21:42;;;;;;;5.00;1.87;;;;;;;;;;5001545;28;20217;-71
2023/04/27 18:24:46;;;;;;;4.00;1.60;;;;;;;;;;5013550;28;20664;-71
2023/04/27 18:27:54;;;;;;;4.80;1.90;;;;;;;;;;4990540;28;20177;-71
2023/04/27 18:30:58;;;;;;;11.13;2.40;;;;;;;;;;5013643;28;20213;-70